sensor_id;sensor_type;location;lat;lon;timestamp;temperature;humidity
41324;DHT22;27073;51.128;4.220;2023-07-02T00:02:25;17.60;99.90
41324;DHT22;27073;51.128;4.220;2023-07-02T00:04:50;17.70;99.90
41324;DHT22;27073;51.128;4.220;2023-07-02T00:07:16;17.60;99.90
41324;DHT22;27073;51.128;4.220;2023-07-02T00:09:42;17.60;99.90
41324;DHT22;27073;51.128;4.220;2023-07-02T00:12:08;17.60;99.90
41324;DHT22;27073;51.128;4.220;2023-07-02T00:14:34;17.60;99.90
41324;DHT22;27073;51.128;4.220;2023-07-02T00:16:59;17.60;99.90
41324;DHT22;27073;51.128;4.220;2023-07-02T00:19:25;17.60;99.90
41324;DHT22;27073;51.128;4.220;2023-07-02T00:21:51;17.60;99.90
41324;DHT22;27073;51.128;4.220;2023-07-02T00:24:19;17.60;99.90
41324;DHT22;27073;51.128;4.220;2023-07-02T00:26:44;17.60;99.90
41324;DHT22;27073;51.128;4.220;2023-07-02T00:29:12;17.60;99.90
41324;DHT22;27073;51.128;4.220;2023-07-02T00:31:38;17.50;99.90
41324;DHT22;27073;51.128;4.220;2023-07-02T00:34:04;17.60;99.90
41324;DHT22;27073;51.128;4.220;2023-07-02T00:36:30;17.50;99.90
41324;DHT22;27073;51.128;4.220;2023-07-02T00:38:57;17.50;99.90
41324;DHT22;27073;51.128;4.220;2023-07-02T00:41:23;17.50;99.90
41324;DHT22;27073;51.128;4.220;2023-07-02T00:43:49;17.60;99.90
41324;DHT22;27073;51.128;4.220;2023-07-02T00:46:19;17.60;99.90
41324;DHT22;27073;51.128;4.220;2023-07-02T00:48:49;17.60;99.90
41324;DHT22;27073;51.128;4.220;2023-07-02T00:51:17;17.60;99.90
41324;DHT22;27073;51.128;4.220;2023-07-02T00:53:48;17.50;99.90
41324;DHT22;27073;51.128;4.220;2023-07-02T00:56:14;17.40;99.90
41324;DHT22;27073;51.128;4.220;2023-07-02T00:58:43;17.40;99.90
41324;DHT22;27073;51.128;4.220;2023-07-02T01:01:18;17.30;99.90
41324;DHT22;27073;51.128;4.220;2023-07-02T01:03:51;17.40;99.90
41324;DHT22;27073;51.128;4.220;2023-07-02T01:06:23;17.50;99.90
41324;DHT22;27073;51.128;4.220;2023-07-02T01:08:51;17.60;99.90
41324;DHT22;27073;51.128;4.220;2023-07-02T01:11:18;17.50;99.90
41324;DHT22;27073;51.128;4.220;2023-07-02T01:13:44;17.50;99.90
41324;DHT22;27073;51.128;4.220;2023-07-02T01:16:10;17.40;99.90
41324;DHT22;27073;51.128;4.220;2023-07-02T01:18:36;17.40;99.90
41324;DHT22;27073;51.128;4.220;2023-07-02T01:21:05;17.50;99.90
41324;DHT22;27073;51.128;4.220;2023-07-02T01:23:34;17.40;99.90
41324;DHT22;27073;51.128;4.220;2023-07-02T01:26:02;17.50;99.90
41324;DHT22;27073;51.128;4.220;2023-07-02T01:28:35;17.40;99.90
41324;DHT22;27073;51.128;4.220;2023-07-02T01:31:03;17.50;99.90
41324;DHT22;27073;51.128;4.220;2023-07-02T01:33:29;17.50;99.90
41324;DHT22;27073;51.128;4.220;2023-07-02T01:35:55;17.60;99.90
41324;DHT22;27073;51.128;4.220;2023-07-02T01:38:20;17.70;99.90
41324;DHT22;27073;51.128;4.220;2023-07-02T01:40:47;17.50;99.90
41324;DHT22;27073;51.128;4.220;2023-07-02T01:43:13;17.50;99.90
41324;DHT22;27073;51.128;4.220;2023-07-02T01:45:40;17.40;99.90
41324;DHT22;27073;51.128;4.220;2023-07-02T01:48:06;17.50;99.90
41324;DHT22;27073;51.128;4.220;2023-07-02T01:50:32;17.50;99.90
41324;DHT22;27073;51.128;4.220;2023-07-02T01:52:57;17.50;99.90
41324;DHT22;27073;51.128;4.220;2023-07-02T01:55:23;17.40;99.90
41324;DHT22;27073;51.128;4.220;2023-07-02T01:57:50;17.40;99.90
41324;DHT22;27073;51.128;4.220;2023-07-02T02:00:16;17.40;99.90
41324;DHT22;27073;51.128;4.220;2023-07-02T02:02:42;17.30;99.90
41324;DHT22;27073;51.128;4.220;2023-07-02T02:05:09;17.20;99.90
41324;DHT22;27073;51.128;4.220;2023-07-02T02:07:36;17.20;99.90
41324;DHT22;27073;51.128;4.220;2023-07-02T02:10:03;17.10;99.90
41324;DHT22;27073;51.128;4.220;2023-07-02T02:12:30;17.10;99.90
41324;DHT22;27073;51.128;4.220;2023-07-02T02:14:56;17.10;99.90
41324;DHT22;27073;51.128;4.220;2023-07-02T02:17:22;17.20;99.90
41324;DHT22;27073;51.128;4.220;2023-07-02T02:19:49;17.30;99.90
41324;DHT22;27073;51.128;4.220;2023-07-02T02:22:15;17.20;99.90
41324;DHT22;27073;51.128;4.220;2023-07-02T02:24:42;17.10;99.90
41324;DHT22;27073;51.128;4.220;2023-07-02T02:27:07;17.10;99.90
41324;DHT22;27073;51.128;4.220;2023-07-02T02:29:34;17.20;99.90
41324;DHT22;27073;51.128;4.220;2023-07-02T02:32:00;17.20;99.90
41324;DHT22;27073;51.128;4.220;2023-07-02T02:34:26;17.10;99.90
41324;DHT22;27073;51.128;4.220;2023-07-02T02:36:52;17.00;99.90
41324;DHT22;27073;51.128;4.220;2023-07-02T02:39:21;17.00;99.90
41324;DHT22;27073;51.128;4.220;2023-07-02T02:41:46;16.80;99.90
41324;DHT22;27073;51.128;4.220;2023-07-02T02:44:15;16.80;99.90
41324;DHT22;27073;51.128;4.220;2023-07-02T02:46:41;16.90;99.90
41324;DHT22;27073;51.128;4.220;2023-07-02T02:49:06;16.90;99.90
41324;DHT22;27073;51.128;4.220;2023-07-02T02:51:32;17.10;99.90
41324;DHT22;27073;51.128;4.220;2023-07-02T02:53:58;17.20;99.90
41324;DHT22;27073;51.128;4.220;2023-07-02T02:56:23;17.10;99.90
41324;DHT22;27073;51.128;4.220;2023-07-02T02:58:49;17.00;99.90
41324;DHT22;27073;51.128;4.220;2023-07-02T03:01:15;17.00;99.90
41324;DHT22;27073;51.128;4.220;2023-07-02T03:03:41;17.00;99.90
41324;DHT22;27073;51.128;4.220;2023-07-02T03:06:14;16.90;99.90
41324;DHT22;27073;51.128;4.220;2023-07-02T03:08:40;16.90;99.90
41324;DHT22;27073;51.128;4.220;2023-07-02T03:11:06;16.90;99.90
41324;DHT22;27073;51.128;4.220;2023-07-02T03:13:32;17.00;99.90
41324;DHT22;27073;51.128;4.220;2023-07-02T03:15:58;17.00;99.90
41324;DHT22;27073;51.128;4.220;2023-07-02T03:18:24;17.00;99.90
41324;DHT22;27073;51.128;4.220;2023-07-02T03:20:49;17.00;99.90
41324;DHT22;27073;51.128;4.220;2023-07-02T03:23:15;16.90;99.90
41324;DHT22;27073;51.128;4.220;2023-07-02T03:25:40;16.90;99.90
41324;DHT22;27073;51.128;4.220;2023-07-02T03:28:06;16.80;99.90
41324;DHT22;27073;51.128;4.220;2023-07-02T03:30:32;16.80;99.90
41324;DHT22;27073;51.128;4.220;2023-07-02T03:32:58;16.80;99.90
41324;DHT22;27073;51.128;4.220;2023-07-02T03:35:23;16.70;99.90
41324;DHT22;27073;51.128;4.220;2023-07-02T03:37:49;16.60;99.90
41324;DHT22;27073;51.128;4.220;2023-07-02T03:40:15;16.60;99.90
41324;DHT22;27073;51.128;4.220;2023-07-02T03:42:40;16.60;99.90
41324;DHT22;27073;51.128;4.220;2023-07-02T03:45:06;16.60;99.90
41324;DHT22;27073;51.128;4.220;2023-07-02T03:47:32;16.50;99.90
41324;DHT22;27073;51.128;4.220;2023-07-02T03:49:58;16.60;99.90
41324;DHT22;27073;51.128;4.220;2023-07-02T03:52:23;16.70;99.90
41324;DHT22;27073;51.128;4.220;2023-07-02T03:54:49;16.80;99.90
41324;DHT22;27073;51.128;4.220;2023-07-02T03:57:15;16.90;99.90
41324;DHT22;27073;51.128;4.220;2023-07-02T03:59:41;16.90;99.90
41324;DHT22;27073;51.128;4.220;2023-07-02T04:02:06;16.90;99.90
41324;DHT22;27073;51.128;4.220;2023-07-02T04:04:32;16.80;99.90
41324;DHT22;27073;51.128;4.220;2023-07-02T04:06:57;16.90;99.90
41324;DHT22;27073;51.128;4.220;2023-07-02T04:09:23;16.90;99.90
41324;DHT22;27073;51.128;4.220;2023-07-02T04:11:49;16.80;99.90
41324;DHT22;27073;51.128;4.220;2023-07-02T04:14:14;16.70;99.90
41324;DHT22;27073;51.128;4.220;2023-07-02T04:16:43;16.70;99.90
41324;DHT22;27073;51.128;4.220;2023-07-02T04:19:10;16.80;99.90
41324;DHT22;27073;51.128;4.220;2023-07-02T04:21:35;17.00;99.90
41324;DHT22;27073;51.128;4.220;2023-07-02T04:24:01;16.90;99.90
41324;DHT22;27073;51.128;4.220;2023-07-02T04:26:27;16.70;99.90
41324;DHT22;27073;51.128;4.220;2023-07-02T04:28:55;16.70;99.90
41324;DHT22;27073;51.128;4.220;2023-07-02T04:31:21;16.60;99.90
41324;DHT22;27073;51.128;4.220;2023-07-02T04:33:47;16.60;99.90
41324;DHT22;27073;51.128;4.220;2023-07-02T04:36:13;16.60;99.90
41324;DHT22;27073;51.128;4.220;2023-07-02T04:38:38;16.60;99.90
41324;DHT22;27073;51.128;4.220;2023-07-02T04:41:05;16.60;99.90
41324;DHT22;27073;51.128;4.220;2023-07-02T04:43:31;16.70;99.90
41324;DHT22;27073;51.128;4.220;2023-07-02T04:45:58;16.70;99.90
41324;DHT22;27073;51.128;4.220;2023-07-02T04:48:24;16.70;99.90
41324;DHT22;27073;51.128;4.220;2023-07-02T04:50:50;16.70;99.90
41324;DHT22;27073;51.128;4.220;2023-07-02T04:53:15;16.60;99.90
41324;DHT22;27073;51.128;4.220;2023-07-02T04:55:41;16.60;99.90
41324;DHT22;27073;51.128;4.220;2023-07-02T04:58:07;16.60;99.90
41324;DHT22;27073;51.128;4.220;2023-07-02T05:00:33;16.60;99.90
41324;DHT22;27073;51.128;4.220;2023-07-02T05:02:58;16.60;99.90
41324;DHT22;27073;51.128;4.220;2023-07-02T05:05:24;16.60;99.90
41324;DHT22;27073;51.128;4.220;2023-07-02T05:07:49;16.60;99.90
41324;DHT22;27073;51.128;4.220;2023-07-02T05:10:15;16.60;99.90
41324;DHT22;27073;51.128;4.220;2023-07-02T05:12:41;16.60;99.90
41324;DHT22;27073;51.128;4.220;2023-07-02T05:15:07;16.70;99.90
41324;DHT22;27073;51.128;4.220;2023-07-02T05:17:33;16.70;99.90
41324;DHT22;27073;51.128;4.220;2023-07-02T05:20:01;16.70;99.90
41324;DHT22;27073;51.128;4.220;2023-07-02T05:22:27;16.70;99.90
41324;DHT22;27073;51.128;4.220;2023-07-02T05:24:52;16.80;99.90
41324;DHT22;27073;51.128;4.220;2023-07-02T05:27:18;16.70;99.90
41324;DHT22;27073;51.128;4.220;2023-07-02T05:29:43;16.70;99.90
41324;DHT22;27073;51.128;4.220;2023-07-02T05:32:09;16.70;99.90
41324;DHT22;27073;51.128;4.220;2023-07-02T05:34:35;16.70;99.90
41324;DHT22;27073;51.128;4.220;2023-07-02T05:37:01;16.80;99.90
41324;DHT22;27073;51.128;4.220;2023-07-02T05:39:26;16.80;99.90
41324;DHT22;27073;51.128;4.220;2023-07-02T05:41:52;16.80;99.90
41324;DHT22;27073;51.128;4.220;2023-07-02T05:44:18;16.80;99.90
41324;DHT22;27073;51.128;4.220;2023-07-02T05:46:44;16.90;99.90
41324;DHT22;27073;51.128;4.220;2023-07-02T05:49:10;16.80;99.90
41324;DHT22;27073;51.128;4.220;2023-07-02T05:51:35;16.80;99.90
41324;DHT22;27073;51.128;4.220;2023-07-02T05:54:01;16.90;99.90
41324;DHT22;27073;51.128;4.220;2023-07-02T05:56:27;16.80;99.90
41324;DHT22;27073;51.128;4.220;2023-07-02T05:58:52;16.90;99.90
41324;DHT22;27073;51.128;4.220;2023-07-02T06:01:18;16.90;99.90
41324;DHT22;27073;51.128;4.220;2023-07-02T06:03:44;17.00;99.90
41324;DHT22;27073;51.128;4.220;2023-07-02T06:06:11;17.00;99.90
41324;DHT22;27073;51.128;4.220;2023-07-02T06:08:37;17.10;99.90
41324;DHT22;27073;51.128;4.220;2023-07-02T06:11:03;17.10;99.90
41324;DHT22;27073;51.128;4.220;2023-07-02T06:13:28;17.10;99.90
41324;DHT22;27073;51.128;4.220;2023-07-02T06:15:54;17.10;99.90
41324;DHT22;27073;51.128;4.220;2023-07-02T06:18:19;17.20;99.90
41324;DHT22;27073;51.128;4.220;2023-07-02T06:20:46;17.30;99.90
41324;DHT22;27073;51.128;4.220;2023-07-02T06:23:12;17.50;99.90
41324;DHT22;27073;51.128;4.220;2023-07-02T06:25:37;17.40;99.90
41324;DHT22;27073;51.128;4.220;2023-07-02T06:28:03;17.30;99.90
41324;DHT22;27073;51.128;4.220;2023-07-02T06:30:29;17.30;99.90
41324;DHT22;27073;51.128;4.220;2023-07-02T06:32:56;17.50;99.90
41324;DHT22;27073;51.128;4.220;2023-07-02T06:35:22;17.50;95.90
41324;DHT22;27073;51.128;4.220;2023-07-02T06:37:47;17.70;91.50
41324;DHT22;27073;51.128;4.220;2023-07-02T06:40:13;17.60;91.40
41324;DHT22;27073;51.128;4.220;2023-07-02T06:42:39;17.60;85.50
41324;DHT22;27073;51.128;4.220;2023-07-02T06:45:06;17.60;88.20
41324;DHT22;27073;51.128;4.220;2023-07-02T06:47:32;17.60;84.50
41324;DHT22;27073;51.128;4.220;2023-07-02T06:49:58;17.60;85.30
41324;DHT22;27073;51.128;4.220;2023-07-02T06:52:24;17.60;81.70
41324;DHT22;27073;51.128;4.220;2023-07-02T06:54:50;17.70;72.20
41324;DHT22;27073;51.128;4.220;2023-07-02T06:57:16;17.80;72.00
41324;DHT22;27073;51.128;4.220;2023-07-02T06:59:42;18.10;72.70
41324;DHT22;27073;51.128;4.220;2023-07-02T07:02:07;18.20;66.00
41324;DHT22;27073;51.128;4.220;2023-07-02T07:04:33;18.20;59.60
41324;DHT22;27073;51.128;4.220;2023-07-02T07:07:00;18.10;59.30
41324;DHT22;27073;51.128;4.220;2023-07-02T07:09:29;18.20;58.00
41324;DHT22;27073;51.128;4.220;2023-07-02T07:11:55;18.20;56.20
41324;DHT22;27073;51.128;4.220;2023-07-02T07:14:21;18.20;58.20
41324;DHT22;27073;51.128;4.220;2023-07-02T07:16:46;18.20;55.10
41324;DHT22;27073;51.128;4.220;2023-07-02T07:19:12;18.10;58.40
41324;DHT22;27073;51.128;4.220;2023-07-02T07:21:38;18.20;51.40
41324;DHT22;27073;51.128;4.220;2023-07-02T07:24:04;18.10;52.10
41324;DHT22;27073;51.128;4.220;2023-07-02T07:26:30;17.90;49.10
41324;DHT22;27073;51.128;4.220;2023-07-02T07:28:55;18.00;42.20
41324;DHT22;27073;51.128;4.220;2023-07-02T07:31:21;18.20;34.40
41324;DHT22;27073;51.128;4.220;2023-07-02T07:33:47;18.40;27.70
41324;DHT22;27073;51.128;4.220;2023-07-02T07:36:13;18.50;23.40
41324;DHT22;27073;51.128;4.220;2023-07-02T07:38:39;18.60;17.30
41324;DHT22;27073;51.128;4.220;2023-07-02T07:41:05;18.60;12.80
41324;DHT22;27073;51.128;4.220;2023-07-02T07:43:31;18.40;16.20
41324;DHT22;27073;51.128;4.220;2023-07-02T07:45:56;18.30;17.10
41324;DHT22;27073;51.128;4.220;2023-07-02T07:48:22;18.40;25.80
41324;DHT22;27073;51.128;4.220;2023-07-02T07:50:48;18.50;15.30
41324;DHT22;27073;51.128;4.220;2023-07-02T07:53:14;18.70;24.60
41324;DHT22;27073;51.128;4.220;2023-07-02T07:55:40;18.70;7.60
41324;DHT22;27073;51.128;4.220;2023-07-02T07:58:05;18.80;10.50
41324;DHT22;27073;51.128;4.220;2023-07-02T08:00:31;18.80;1.20
41324;DHT22;27073;51.128;4.220;2023-07-02T08:02:56;18.70;10.10
41324;DHT22;27073;51.128;4.220;2023-07-02T08:05:22;18.90;5.40
41324;DHT22;27073;51.128;4.220;2023-07-02T08:07:48;19.00;1.50
41324;DHT22;27073;51.128;4.220;2023-07-02T08:10:14;18.90;1.00
41324;DHT22;27073;51.128;4.220;2023-07-02T08:12:40;19.10;7.20
41324;DHT22;27073;51.128;4.220;2023-07-02T08:15:06;18.90;1.00
41324;DHT22;27073;51.128;4.220;2023-07-02T08:17:32;18.70;11.10
41324;DHT22;27073;51.128;4.220;2023-07-02T08:19:57;18.70;6.10
41324;DHT22;27073;51.128;4.220;2023-07-02T08:22:23;18.80;1.00
41324;DHT22;27073;51.128;4.220;2023-07-02T08:24:49;18.90;1.00
41324;DHT22;27073;51.128;4.220;2023-07-02T08:27:16;18.80;1.00
41324;DHT22;27073;51.128;4.220;2023-07-02T08:29:45;18.70;1.00
41324;DHT22;27073;51.128;4.220;2023-07-02T08:32:11;18.60;6.90
41324;DHT22;27073;51.128;4.220;2023-07-02T08:34:36;18.70;10.60
41324;DHT22;27073;51.128;4.220;2023-07-02T08:37:02;18.90;2.00
41324;DHT22;27073;51.128;4.220;2023-07-02T08:39:28;18.60;1.00
41324;DHT22;27073;51.128;4.220;2023-07-02T08:41:54;18.70;8.80
41324;DHT22;27073;51.128;4.220;2023-07-02T08:44:20;18.70;6.30
41324;DHT22;27073;51.128;4.220;2023-07-02T08:46:49;18.80;5.10
41324;DHT22;27073;51.128;4.220;2023-07-02T08:49:19;18.80;15.90
41324;DHT22;27073;51.128;4.220;2023-07-02T08:51:46;18.70;11.30
41324;DHT22;27073;51.128;4.220;2023-07-02T08:54:12;18.80;15.00
41324;DHT22;27073;51.128;4.220;2023-07-02T08:56:39;19.00;11.10
41324;DHT22;27073;51.128;4.220;2023-07-02T08:59:08;19.10;14.30
41324;DHT22;27073;51.128;4.220;2023-07-02T09:01:48;19.40;14.40
41324;DHT22;27073;51.128;4.220;2023-07-02T09:04:22;19.70;11.70
41324;DHT22;27073;51.128;4.220;2023-07-02T09:07:11;19.50;1.50
41324;DHT22;27073;51.128;4.220;2023-07-02T09:09:46;19.30;7.50
41324;DHT22;27073;51.128;4.220;2023-07-02T09:12:42;19.30;7.50
41324;DHT22;27073;51.128;4.220;2023-07-02T09:15:07;19.30;9.50
41324;DHT22;27073;51.128;4.220;2023-07-02T09:17:37;19.30;10.00
41324;DHT22;27073;51.128;4.220;2023-07-02T09:20:05;19.20;14.10
41324;DHT22;27073;51.128;4.220;2023-07-02T09:22:33;19.30;21.90
41324;DHT22;27073;51.128;4.220;2023-07-02T09:25:00;19.30;21.10
41324;DHT22;27073;51.128;4.220;2023-07-02T09:27:40;19.20;23.60
41324;DHT22;27073;51.128;4.220;2023-07-02T09:32:33;19.10;25.10
41324;DHT22;27073;51.128;4.220;2023-07-02T09:34:59;19.20;27.00
41324;DHT22;27073;51.128;4.220;2023-07-02T09:37:24;19.50;10.40
41324;DHT22;27073;51.128;4.220;2023-07-02T09:39:51;19.40;8.70
41324;DHT22;27073;51.128;4.220;2023-07-02T09:42:25;19.60;16.20
41324;DHT22;27073;51.128;4.220;2023-07-02T09:44:58;19.50;1.00
41324;DHT22;27073;51.128;4.220;2023-07-02T09:47:25;19.30;1.00
41324;DHT22;27073;51.128;4.220;2023-07-02T09:49:57;19.30;1.00
41324;DHT22;27073;51.128;4.220;2023-07-02T09:52:23;19.30;1.00
41324;DHT22;27073;51.128;4.220;2023-07-02T09:54:49;19.20;1.00
41324;DHT22;27073;51.128;4.220;2023-07-02T09:57:15;19.30;1.00
41324;DHT22;27073;51.128;4.220;2023-07-02T09:59:41;19.30;1.00
41324;DHT22;27073;51.128;4.220;2023-07-02T10:02:09;19.30;1.00
41324;DHT22;27073;51.128;4.220;2023-07-02T10:04:45;19.40;1.00
41324;DHT22;27073;51.128;4.220;2023-07-02T11:22:15;20.60;99.90
41324;DHT22;27073;51.128;4.220;2023-07-02T11:24:41;21.00;99.90
41324;DHT22;27073;51.128;4.220;2023-07-02T11:27:07;20.50;99.90
41324;DHT22;27073;51.128;4.220;2023-07-02T11:29:36;20.40;99.90
41324;DHT22;27073;51.128;4.220;2023-07-02T11:32:09;20.20;99.90
41324;DHT22;27073;51.128;4.220;2023-07-02T11:34:35;20.60;99.90
41324;DHT22;27073;51.128;4.220;2023-07-02T11:37:01;20.70;99.90
41324;DHT22;27073;51.128;4.220;2023-07-02T11:39:28;20.90;99.90
41324;DHT22;27073;51.128;4.220;2023-07-02T11:41:53;21.00;99.90
41324;DHT22;27073;51.128;4.220;2023-07-02T11:44:19;20.60;99.90
41324;DHT22;27073;51.128;4.220;2023-07-02T11:46:45;20.50;99.90
41324;DHT22;27073;51.128;4.220;2023-07-02T11:49:12;20.50;99.90
41324;DHT22;27073;51.128;4.220;2023-07-02T11:51:39;20.60;99.90
41324;DHT22;27073;51.128;4.220;2023-07-02T11:54:06;20.60;99.90
41324;DHT22;27073;51.128;4.220;2023-07-02T11:56:32;20.70;99.90
41324;DHT22;27073;51.128;4.220;2023-07-02T11:58:58;20.90;99.90
41324;DHT22;27073;51.128;4.220;2023-07-02T12:01:24;20.90;99.90
41324;DHT22;27073;51.128;4.220;2023-07-02T12:03:50;20.80;87.60
41324;DHT22;27073;51.128;4.220;2023-07-02T12:06:15;20.80;99.90
41324;DHT22;27073;51.128;4.220;2023-07-02T12:08:41;20.50;99.90
41324;DHT22;27073;51.128;4.220;2023-07-02T12:11:07;20.60;99.90
41324;DHT22;27073;51.128;4.220;2023-07-02T12:13:33;21.00;99.90
41324;DHT22;27073;51.128;4.220;2023-07-02T12:15:59;21.00;99.90
41324;DHT22;27073;51.128;4.220;2023-07-02T12:18:24;21.10;1.00
41324;DHT22;27073;51.128;4.220;2023-07-02T12:20:50;20.90;37.10
41324;DHT22;27073;51.128;4.220;2023-07-02T12:23:16;20.90;1.00
41324;DHT22;27073;51.128;4.220;2023-07-02T12:25:42;20.90;1.00
41324;DHT22;27073;51.128;4.220;2023-07-02T12:28:08;20.90;24.90
41324;DHT22;27073;51.128;4.220;2023-07-02T12:30:33;20.80;99.90
41324;DHT22;27073;51.128;4.220;2023-07-02T12:32:59;20.80;99.90
41324;DHT22;27073;51.128;4.220;2023-07-02T12:35:25;21.00;24.40
41324;DHT22;27073;51.128;4.220;2023-07-02T12:37:52;21.10;1.00
41324;DHT22;27073;51.128;4.220;2023-07-02T12:40:19;21.20;1.00
41324;DHT22;27073;51.128;4.220;2023-07-02T12:42:46;21.50;99.90
41324;DHT22;27073;51.128;4.220;2023-07-02T12:45:13;21.80;99.90
41324;DHT22;27073;51.128;4.220;2023-07-02T12:47:40;22.00;1.00
41324;DHT22;27073;51.128;4.220;2023-07-02T12:50:07;22.10;99.90
41324;DHT22;27073;51.128;4.220;2023-07-02T12:52:33;22.00;99.90
41324;DHT22;27073;51.128;4.220;2023-07-02T12:54:59;21.70;1.00
41324;DHT22;27073;51.128;4.220;2023-07-02T12:57:26;22.00;99.90
41324;DHT22;27073;51.128;4.220;2023-07-02T12:59:56;22.00;99.90
41324;DHT22;27073;51.128;4.220;2023-07-02T13:02:23;22.40;4.30
41324;DHT22;27073;51.128;4.220;2023-07-02T13:04:49;22.60;99.90
41324;DHT22;27073;51.128;4.220;2023-07-02T13:07:15;22.60;99.90
41324;DHT22;27073;51.128;4.220;2023-07-02T13:09:41;22.40;99.90
41324;DHT22;27073;51.128;4.220;2023-07-02T13:12:08;22.30;1.00
41324;DHT22;27073;51.128;4.220;2023-07-02T13:14:34;22.60;12.50
41324;DHT22;27073;51.128;4.220;2023-07-02T13:17:00;22.50;1.00
41324;DHT22;27073;51.128;4.220;2023-07-02T13:19:26;22.40;1.00
41324;DHT22;27073;51.128;4.220;2023-07-02T13:21:52;22.30;99.90
41324;DHT22;27073;51.128;4.220;2023-07-02T13:24:17;22.60;1.00
41324;DHT22;27073;51.128;4.220;2023-07-02T13:26:43;22.60;99.90
41324;DHT22;27073;51.128;4.220;2023-07-02T13:29:09;23.10;3.10
41324;DHT22;27073;51.128;4.220;2023-07-02T13:31:34;22.90;99.90
41324;DHT22;27073;51.128;4.220;2023-07-02T13:34:00;22.60;1.00
41324;DHT22;27073;51.128;4.220;2023-07-02T13:36:26;22.20;99.90
41324;DHT22;27073;51.128;4.220;2023-07-02T13:38:54;22.40;1.00
41324;DHT22;27073;51.128;4.220;2023-07-02T13:41:20;22.50;99.90
41324;DHT22;27073;51.128;4.220;2023-07-02T13:43:45;22.30;1.00
41324;DHT22;27073;51.128;4.220;2023-07-02T13:46:11;22.30;1.00
41324;DHT22;27073;51.128;4.220;2023-07-02T13:48:37;22.50;99.90
41324;DHT22;27073;51.128;4.220;2023-07-02T13:51:02;22.80;99.90
41324;DHT22;27073;51.128;4.220;2023-07-02T13:53:28;23.10;72.30
41324;DHT22;27073;51.128;4.220;2023-07-02T13:55:54;23.10;99.90
41324;DHT22;27073;51.128;4.220;2023-07-02T13:58:19;23.20;99.90
41324;DHT22;27073;51.128;4.220;2023-07-02T14:00:45;23.90;15.40
41324;DHT22;27073;51.128;4.220;2023-07-02T14:03:11;24.50;55.80
41324;DHT22;27073;51.128;4.220;2023-07-02T14:05:36;24.70;59.20
41324;DHT22;27073;51.128;4.220;2023-07-02T14:08:02;24.00;1.00
41324;DHT22;27073;51.128;4.220;2023-07-02T14:10:28;23.60;99.90
41324;DHT22;27073;51.128;4.220;2023-07-02T14:12:54;23.90;94.90
41324;DHT22;27073;51.128;4.220;2023-07-02T14:15:20;24.00;99.90
41324;DHT22;27073;51.128;4.220;2023-07-02T14:17:46;23.40;99.90
41324;DHT22;27073;51.128;4.220;2023-07-02T14:20:11;22.90;99.90
41324;DHT22;27073;51.128;4.220;2023-07-02T14:22:37;23.00;99.90
41324;DHT22;27073;51.128;4.220;2023-07-02T14:25:03;23.80;99.90
41324;DHT22;27073;51.128;4.220;2023-07-02T14:27:29;23.50;99.90
41324;DHT22;27073;51.128;4.220;2023-07-02T14:29:55;24.40;99.90
41324;DHT22;27073;51.128;4.220;2023-07-02T14:32:21;24.00;99.90
41324;DHT22;27073;51.128;4.220;2023-07-02T14:34:47;25.30;99.90
41324;DHT22;27073;51.128;4.220;2023-07-02T14:37:12;25.70;1.00
41324;DHT22;27073;51.128;4.220;2023-07-02T14:39:38;24.50;99.90
41324;DHT22;27073;51.128;4.220;2023-07-02T14:42:04;23.90;1.00
41324;DHT22;27073;51.128;4.220;2023-07-02T14:44:32;23.60;99.90
41324;DHT22;27073;51.128;4.220;2023-07-02T14:46:57;23.60;99.90
41324;DHT22;27073;51.128;4.220;2023-07-02T14:49:23;23.20;99.90
41324;DHT22;27073;51.128;4.220;2023-07-02T14:51:49;23.20;1.00
41324;DHT22;27073;51.128;4.220;2023-07-02T14:54:14;23.30;99.90
41324;DHT22;27073;51.128;4.220;2023-07-02T14:56:40;23.60;99.90
41324;DHT22;27073;51.128;4.220;2023-07-02T14:59:06;23.60;99.90
41324;DHT22;27073;51.128;4.220;2023-07-02T15:01:32;23.20;1.00
41324;DHT22;27073;51.128;4.220;2023-07-02T15:03:58;22.90;1.00
41324;DHT22;27073;51.128;4.220;2023-07-02T15:06:24;22.90;99.90
41324;DHT22;27073;51.128;4.220;2023-07-02T15:08:50;24.00;1.00
41324;DHT22;27073;51.128;4.220;2023-07-02T15:11:17;24.80;52.60
41324;DHT22;27073;51.128;4.220;2023-07-02T15:13:42;24.40;1.00
41324;DHT22;27073;51.128;4.220;2023-07-02T15:16:09;24.10;1.00
41324;DHT22;27073;51.128;4.220;2023-07-02T15:18:35;23.90;96.00
41324;DHT22;27073;51.128;4.220;2023-07-02T15:21:00;24.70;99.90
41324;DHT22;27073;51.128;4.220;2023-07-02T15:23:28;25.80;1.00
41324;DHT22;27073;51.128;4.220;2023-07-02T15:25:58;25.70;99.90
41324;DHT22;27073;51.128;4.220;2023-07-02T15:28:25;24.60;99.90
41324;DHT22;27073;51.128;4.220;2023-07-02T15:30:55;24.00;99.90
41324;DHT22;27073;51.128;4.220;2023-07-02T15:33:22;23.50;9.10
41324;DHT22;27073;51.128;4.220;2023-07-02T15:35:48;23.70;1.00
41324;DHT22;27073;51.128;4.220;2023-07-02T15:38:14;24.10;1.00
41324;DHT22;27073;51.128;4.220;2023-07-02T15:40:40;24.30;1.00
41324;DHT22;27073;51.128;4.220;2023-07-02T15:43:05;24.60;99.90
41324;DHT22;27073;51.128;4.220;2023-07-02T15:45:31;24.60;86.80
41324;DHT22;27073;51.128;4.220;2023-07-02T15:47:57;24.70;1.00
41324;DHT22;27073;51.128;4.220;2023-07-02T15:50:23;24.30;1.00
41324;DHT22;27073;51.128;4.220;2023-07-02T15:52:49;23.60;99.90
41324;DHT22;27073;51.128;4.220;2023-07-02T15:55:18;23.40;1.00
41324;DHT22;27073;51.128;4.220;2023-07-02T15:57:44;24.00;92.60
41324;DHT22;27073;51.128;4.220;2023-07-02T16:00:12;24.90;99.90
41324;DHT22;27073;51.128;4.220;2023-07-02T16:02:39;24.70;12.50
41324;DHT22;27073;51.128;4.220;2023-07-02T16:05:06;24.60;99.50
41324;DHT22;27073;51.128;4.220;2023-07-02T16:07:32;24.20;99.90
41324;DHT22;27073;51.128;4.220;2023-07-02T16:10:03;24.90;99.90
41324;DHT22;27073;51.128;4.220;2023-07-02T16:12:29;25.80;1.00
41324;DHT22;27073;51.128;4.220;2023-07-02T16:14:55;24.80;99.90
41324;DHT22;27073;51.128;4.220;2023-07-02T16:17:21;24.50;1.00
41324;DHT22;27073;51.128;4.220;2023-07-02T16:19:47;25.00;1.00
41324;DHT22;27073;51.128;4.220;2023-07-02T16:22:13;24.50;1.00
41324;DHT22;27073;51.128;4.220;2023-07-02T16:24:38;24.60;1.00
41324;DHT22;27073;51.128;4.220;2023-07-02T16:27:07;24.70;46.80
41324;DHT22;27073;51.128;4.220;2023-07-02T16:29:35;24.00;1.00
41324;DHT22;27073;51.128;4.220;2023-07-02T16:32:03;24.50;59.80
41324;DHT22;27073;51.128;4.220;2023-07-02T16:34:29;24.40;16.30
41324;DHT22;27073;51.128;4.220;2023-07-02T16:36:56;23.40;1.00
41324;DHT22;27073;51.128;4.220;2023-07-02T16:39:22;23.40;99.90
41324;DHT22;27073;51.128;4.220;2023-07-02T16:41:49;23.80;36.70
41324;DHT22;27073;51.128;4.220;2023-07-02T16:44:20;23.70;99.90
41324;DHT22;27073;51.128;4.220;2023-07-02T16:46:48;24.00;1.00
41324;DHT22;27073;51.128;4.220;2023-07-02T16:49:15;24.50;99.90